Mexico City, Mexico

3:45 PM CDT on August 25, 2016 (GMT -0500)
Lomas de Chapultepec | | Change Station

Elev 7765 ft 19.42 °N, 99.23 °W | Updated 6 minutes ago

Mostly Cloudy
Mostly Cloudy
75.4 °F
Feels Like 78 °F
N
3.1
Wind Variable Wind from SSW
Gusts 9.3 mph

Today
High -- | Low -- °F
--% Chance of Precip.
Yesterday
High -- | Low -- °F
Precip. -- in
Pressure 30.37 in
Visibility 6.0 miles
Clouds Mostly Cloudy 1500 ft
Mostly Cloudy 7000 ft
Mostly Cloudy 20000 ft
Heat Index 78 °F
Dew Point 55 °F
Humidity 48%
Rainfall 0.01 in
Snow Depth Not available.
7:20 AM 7:56 PM
Last Quarter, 42% visible
METAR MMTO 251946Z 03002KT 6SM BKN015CB BKN070 BKN200 20/09 A3037 RMK 8/332
Pressure 30.37 in
Visibility 6.0 miles
Clouds Mostly Cloudy 1500 ft
Mostly Cloudy 7000 ft
Mostly Cloudy 20000 ft
Heat Index 78 °F
Dew Point 55 °F
Humidity 48%
Rainfall 0.01 in
Snow Depth Not available.
7:20 AM 7:56 PM
Last Quarter, 42% visible
METAR MMTO 251946Z 03002KT 6SM BKN015CB BKN070 BKN200 20/09 A3037 RMK 8/332

10-Day Weather Forecast

No radar image for this location.
×

Almanac

Astronomy

Aug. 25, 2016 Rise Set
Actual Time
Civil Twilight
Nautical Twilight
Astronomical Twilight
Moon
Length of Visible Light
Length of Day
Tomorrow will be .
, % of the Moon is Illuminated

Today's Extremes

Country Highs Country Lows

Community

WunderPhotos

Upload Photos

1,934,931 photos uploaded!

WunderBlog® & News

Nearby

Air Quality

  Air Quality AQ Index Pollutant
Not available.

Snow Depth

Station Depth Elevation

Earthquake Activity

City Distance Mag. Time & Date
Minimum magnitude displayed is 2.5.

Coastal Water Temperatures

Place Temperature

Stations

Nearby Weather Stations

Station Location Temp. Windchill Dew Point Humidity Wind Precip. Elev Updated Type